Time;durP1;ratioP1;P1;durP2;ratioP2;P2;SDS_P1;SDS_P2;PMS_P1;PMS_P2;Temp;Humidity;BMP_temperature;BMP_pressure;BME280_temperature;BME280_humidity;BME280_pressure;Samples;Min_cycle;Max_cycle;Signal;HPM_P1;HPM_P2
2023/07/28 00:00:50;;;;;;;2.30;1.60;;;22.70;89.30;;;;;;5072758;28;20636;-64
2023/07/28 00:03:17;;;;;;;4.33;1.67;;;22.70;89.50;;;;;;5070652;28;20234;-64
2023/07/28 00:05:44;;;;;;;2.03;1.70;;;22.60;89.80;;;;;;5071458;28;20256;-63
2023/07/28 00:08:11;;;;;;;2.60;1.90;;;22.60;90.00;;;;;;5071367;28;20293;-65
2023/07/28 00:10:42;;;;;;;3.40;1.30;;;22.60;90.10;;;;;;5071278;28;20217;-63
2023/07/28 00:13:09;;;;;;;3.00;1.30;;;22.60;90.20;;;;;;5079348;28;20702;-63
2023/07/28 00:15:36;;;;;;;5.83;1.23;;;22.50;90.20;;;;;;5074933;28;20232;-63
2023/07/28 00:18:03;;;;;;;2.90;1.60;;;22.50;90.30;;;;;;5075110;28;20636;-63
2023/07/28 00:20:30;;;;;;;3.30;1.53;;;22.50;90.30;;;;;;5072975;28;20225;-63
2023/07/28 00:22:58;;;;;;;2.70;1.90;;;22.40;90.30;;;;;;5075204;28;20204;-63
2023/07/28 00:25:25;;;;;;;3.23;1.50;;;22.40;90.30;;;;;;5077338;28;20194;-64
2023/07/28 00:27:52;;;;;;;2.13;1.67;;;22.30;90.20;;;;;;5072108;28;20256;-63
2023/07/28 00:30:19;;;;;;;2.23;1.83;;;22.30;90.20;;;;;;5094915;28;20267;-64
2023/07/28 00:32:46;;;;;;;2.63;1.40;;;22.30;90.30;;;;;;5077342;28;20236;-64
2023/07/28 00:35:13;;;;;;;2.17;1.70;;;22.20;90.50;;;;;;5077489;28;20210;-64
2023/07/28 00:37:40;;;;;;;3.20;1.80;;;22.20;90.70;;;;;;5079676;28;20202;-63
2023/07/28 00:40:08;;;;;;;2.57;1.80;;;22.20;90.80;;;;;;5074666;28;20632;-63
2023/07/28 00:42:35;;;;;;;2.53;1.73;;;22.10;90.90;;;;;;5076897;28;20198;-64
2023/07/28 00:45:03;;;;;;;1.90;1.40;;;22.10;91.00;;;;;;5075043;28;20205;-63
2023/07/28 00:47:31;;;;;;;4.10;1.90;;;22.00;91.10;;;;;;5079879;28;20216;-63
2023/07/28 00:49:58;;;;;;;3.10;1.90;;;22.00;91.20;;;;;;5078470;28;20225;-64
2023/07/28 00:52:25;;;;;;;4.30;1.50;;;22.00;91.30;;;;;;5079551;28;20212;-64
2023/07/28 00:54:52;;;;;;;2.17;1.60;;;22.00;91.30;;;;;;5081412;28;20613;-64
2023/07/28 00:57:19;;;;;;;1.50;1.40;;;21.90;91.30;;;;;;5080341;28;20198;-64
2023/07/28 00:59:46;;;;;;;5.93;1.63;;;21.90;91.30;;;;;;5070603;28;20206;-64
2023/07/28 01:02:18;;;;;;;2.63;1.87;;;21.90;91.40;;;;;;5074689;28;20260;-63
2023/07/28 01:04:45;;;;;;;5.20;2.10;;;21.90;91.50;;;;;;5083691;28;20217;-63
2023/07/28 01:07:21;;;;;;;1.37;1.27;;;21.90;91.60;;;;;;5078262;28;20223;-63
2023/07/28 01:09:56;;;;;;;1.90;1.63;;;21.90;91.70;;;;;;5078924;28;20196;-64
2023/07/28 01:12:24;;;;;;;3.50;1.37;;;21.80;91.60;;;;;;5073087;28;20203;-64
2023/07/28 01:14:51;;;;;;;6.87;1.90;;;21.80;91.60;;;;;;5077991;28;20629;-63
2023/07/28 01:17:19;;;;;;;3.00;2.00;;;21.80;91.60;;;;;;5079233;28;20639;-64
2023/07/28 01:19:46;;;;;;;3.20;2.13;;;21.80;91.60;;;;;;5072973;28;20213;-64
2023/07/28 01:22:34;;;;;;;4.40;2.07;;;21.70;91.70;;;;;;5074472;28;20637;-63
2023/07/28 01:25:35;;;;;;;2.07;1.50;;;21.70;91.80;;;;;;5069562;28;20247;-63
2023/07/28 01:28:04;;;;;;;2.73;1.80;;;21.70;91.80;;;;;;5079156;28;20205;-63
2023/07/28 01:30:31;;;;;;;3.87;1.67;;;21.70;91.70;;;;;;5075495;28;20219;-64
2023/07/28 01:32:58;;;;;;;2.67;1.57;;;21.70;91.70;;;;;;5076829;28;20216;-64
2023/07/28 01:35:27;;;;;;;6.53;1.70;;;21.70;91.80;;;;;;5076868;28;20216;-66
2023/07/28 01:37:55;;;;;;;3.97;2.43;;;21.60;91.90;;;;;;5076738;28;20268;-63
2023/07/28 01:40:22;;;;;;;4.20;1.60;;;21.60;92.00;;;;;;5066877;28;20202;-63
2023/07/28 01:42:49;;;;;;;4.47;2.13;;;21.60;92.00;;;;;;5079309;28;20648;-64
2023/07/28 01:45:16;;;;;;;2.20;1.90;;;21.60;92.20;;;;;;5085157;28;20201;-63
2023/07/28 01:47:43;;;;;;;6.00;2.07;;;21.50;92.60;;;;;;5078288;28;20300;-63
2023/07/28 01:50:10;;;;;;;3.13;1.97;;;21.50;92.30;;;;;;5075383;28;20206;-63
2023/07/28 01:52:37;;;;;;;4.20;2.27;;;21.50;92.40;;;;;;5078082;28;20214;-63
2023/07/28 01:55:06;;;;;;;9.10;2.50;;;21.50;92.50;;;;;;5080929;28;20255;-63
2023/07/28 01:57:33;;;;;;;3.30;2.07;;;21.40;92.60;;;;;;5071918;28;20219;-64
2023/07/28 02:00:03;;;;;;;2.83;2.03;;;21.40;92.70;;;;;;5072618;28;20202;-64
2023/07/28 02:02:39;;;;;;;4.53;2.10;;;21.40;92.80;;;;;;5076822;28;20262;-64
2023/07/28 02:05:06;;;;;;;2.27;2.07;;;21.40;92.80;;;;;;5082334;28;20201;-64
2023/07/28 02:07:33;;;;;;;3.57;2.07;;;21.40;92.90;;;;;;5077634;28;20205;-64
2023/07/28 02:10:00;;;;;;;6.40;2.13;;;21.40;92.80;;;;;;5073628;28;20202;-63
2023/07/28 02:12:27;;;;;;;3.97;2.30;;;21.40;92.80;;;;;;5075990;28;20213;-64
2023/07/28 02:14:54;;;;;;;5.67;2.03;;;21.40;92.90;;;;;;5071948;28;20214;-63
2023/07/28 02:17:21;;;;;;;4.70;2.03;;;21.30;92.90;;;;;;5070758;28;20240;-63
2023/07/28 02:19:48;;;;;;;7.17;2.10;;;21.30;93.00;;;;;;5077253;28;20704;-63
2023/07/28 02:22:15;;;;;;;4.53;2.10;;;21.30;93.00;;;;;;5081936;28;20257;-63
2023/07/28 02:24:42;;;;;;;2.50;2.07;;;21.30;92.90;;;;;;5079726;28;20613;-63
2023/07/28 02:27:09;;;;;;;3.17;1.90;;;21.30;92.90;;;;;;5080151;28;20254;-64
2023/07/28 02:29:36;;;;;;;3.30;2.40;;;21.20;92.90;;;;;;5074341;28;20201;-63
2023/07/28 02:32:04;;;;;;;2.37;2.00;;;21.20;93.00;;;;;;5073706;28;20204;-63
2023/07/28 02:34:31;;;;;;;2.43;2.23;;;21.10;93.10;;;;;;5080080;28;20254;-63
2023/07/28 02:36:58;;;;;;;3.57;1.80;;;21.10;93.00;;;;;;5073875;28;20266;-64
2023/07/28 02:39:25;;;;;;;6.20;2.20;;;21.00;92.90;;;;;;5058570;28;20206;-64
2023/07/28 02:41:52;;;;;;;4.97;2.50;;;21.00;92.80;;;;;;5074555;28;20208;-65
2023/07/28 02:44:19;;;;;;;2.93;2.37;;;20.90;92.90;;;;;;5081457;28;20194;-63
2023/07/28 02:46:46;;;;;;;3.63;2.10;;;20.80;93.10;;;;;;5077194;28;20565;-64
2023/07/28 02:49:13;;;;;;;3.70;1.60;;;20.80;93.20;;;;;;5072300;28;20696;-63
2023/07/28 02:51:41;;;;;;;2.23;2.00;;;20.80;93.30;;;;;;5071211;28;20205;-64
2023/07/28 02:54:08;;;;;;;2.70;2.10;;;20.80;93.40;;;;;;5060957;28;20541;-64
2023/07/28 02:56:37;;;;;;;4.50;2.10;;;20.80;93.40;;;;;;5067842;28;20725;-63
2023/07/28 02:59:09;;;;;;;4.37;2.27;;;20.80;93.40;;;;;;5062390;28;20198;-63
2023/07/28 03:01:36;;;;;;;6.73;2.40;;;20.80;93.40;;;;;;5067834;28;20221;-64
2023/07/28 03:04:03;;;;;;;3.27;1.90;;;20.80;93.40;;;;;;5073488;28;20312;-64
2023/07/28 03:06:47;;;;;;;3.93;2.27;;;20.90;93.40;;;;;;5076762;28;20210;-64
2023/07/28 03:09:15;;;;;;;2.70;2.07;;;20.90;93.30;;;;;;5072586;28;20203;-65
2023/07/28 03:11:55;;;;;;;3.27;2.27;;;20.80;93.20;;;;;;5077386;28;20330;-63
2023/07/28 03:14:22;;;;;;;5.57;2.60;;;20.80;93.10;;;;;;5075066;28;20201;-63
2023/07/28 03:16:49;;;;;;;5.53;2.03;;;20.80;93.10;;;;;;5065644;28;20211;-64
2023/07/28 03:19:17;;;;;;;3.87;2.27;;;20.80;93.30;;;;;;5076094;28;20233;-64
2023/07/28 03:21:44;;;;;;;6.10;2.63;;;20.70;93.30;;;;;;5079006;28;20201;-64
2023/07/28 03:24:11;;;;;;;3.80;2.10;;;20.70;93.40;;;;;;5076233;28;20190;-64
2023/07/28 03:26:38;;;;;;;5.70;2.50;;;20.70;93.40;;;;;;5074194;28;20208;-64
2023/07/28 03:29:05;;;;;;;5.80;2.80;;;20.70;93.40;;;;;;5069232;28;20297;-64
2023/07/28 03:31:35;;;;;;;3.10;2.30;;;20.60;93.60;;;;;;5075450;28;20219;-64
2023/07/28 03:34:04;;;;;;;5.53;2.80;;;20.60;93.70;;;;;;5078973;28;20212;-63
2023/07/28 03:36:31;;;;;;;4.53;2.83;;;20.60;93.80;;;;;;5074244;28;20232;-64
2023/07/28 03:39:00;;;;;;;5.30;2.50;;;20.60;94.00;;;;;;5074701;28;20206;-64
2023/07/28 03:41:29;;;;;;;3.50;2.63;;;20.60;94.10;;;;;;5075889;28;20623;-64
2023/07/28 03:43:56;;;;;;;6.87;2.27;;;20.60;94.10;;;;;;5077022;28;20193;-66
2023/07/28 03:46:23;;;;;;;4.03;2.10;;;20.50;94.10;;;;;;5077631;28;20654;-65
2023/07/28 03:48:50;;;;;;;5.00;2.77;;;20.60;94.10;;;;;;5071994;28;20205;-64
2023/07/28 03:51:18;;;;;;;3.40;2.40;;;20.50;93.90;;;;;;5080667;28;20210;-63
2023/07/28 03:53:45;;;;;;;4.30;2.43;;;20.50;93.90;;;;;;5071896;28;20208;-64
2023/07/28 03:56:12;;;;;;;3.20;2.90;;;20.50;94.00;;;;;;5079533;28;20245;-65
2023/07/28 03:58:39;;;;;;;4.83;3.27;;;20.40;94.00;;;;;;5080375;28;20205;-64
2023/07/28 04:01:07;;;;;;;6.77;2.80;;;20.40;94.10;;;;;;5063081;28;20208;-64
2023/07/28 04:03:34;;;;;;;3.53;2.90;;;20.40;94.20;;;;;;5074062;28;20694;-63
2023/07/28 04:06:09;;;;;;;4.43;2.97;;;20.40;94.20;;;;;;5077380;28;20726;-64
2023/07/28 04:08:36;;;;;;;3.20;2.77;;;20.40;94.10;;;;;;5074538;28;20198;-64
2023/07/28 04:11:03;;;;;;;3.37;2.60;;;20.40;94.10;;;;;;5083717;28;20631;-69
2023/07/28 04:13:30;;;;;;;6.33;3.67;;;20.40;94.20;;;;;;5078212;28;20324;-64
2023/07/28 04:15:57;;;;;;;5.33;2.80;;;20.40;94.20;;;;;;5083212;28;20224;-65
2023/07/28 04:18:24;;;;;;;3.50;3.17;;;20.40;94.20;;;;;;5078245;28;20197;-63
2023/07/28 04:20:52;;;;;;;6.53;3.47;;;20.50;94.30;;;;;;5080164;28;20198;-64
2023/07/28 04:23:19;;;;;;;4.40;3.20;;;20.50;94.40;;;;;;5076518;28;20205;-64
2023/07/28 04:25:47;;;;;;;4.87;3.30;;;20.50;94.40;;;;;;5077630;28;20603;-64
2023/07/28 04:28:14;;;;;;;5.00;2.93;;;20.60;94.40;;;;;;5073673;28;20216;-63
2023/07/28 04:30:41;;;;;;;5.10;2.60;;;20.60;94.40;;;;;;5081857;28;20508;-64
2023/07/28 04:33:16;;;;;;;8.80;3.50;;;20.70;94.40;;;;;;5078752;28;20255;-64
2023/07/28 04:35:44;;;;;;;4.53;3.30;;;20.70;94.40;;;;;;5062372;28;20225;-64
2023/07/28 04:38:18;;;;;;;6.70;3.30;;;20.80;94.50;;;;;;5092213;28;20249;-64
2023/07/28 04:40:48;;;;;;;6.40;3.67;;;20.90;94.50;;;;;;5076758;28;20304;-64
2023/07/28 04:43:20;;;;;;;11.83;4.13;;;20.90;94.50;;;;;;5061572;28;20297;-64
2023/07/28 04:45:52;;;;;;;6.57;3.27;;;21.10;94.60;;;;;;5073903;28;20212;-64
2023/07/28 04:48:22;;;;;;;6.50;3.57;;;21.20;94.60;;;;;;5065046;28;20559;-64
2023/07/28 04:50:49;;;;;;;4.17;2.90;;;21.30;94.60;;;;;;5073798;28;20587;-65
2023/07/28 04:53:35;;;;;;;6.30;3.57;;;21.40;94.70;;;;;;5081630;28;20548;-65
2023/07/28 04:56:11;;;;;;;5.90;3.23;;;21.50;94.70;;;;;;5077984;28;20680;-64
2023/07/28 04:58:38;;;;;;;7.10;3.23;;;21.60;94.60;;;;;;5078606;28;20637;-64
2023/07/28 05:01:08;;;;;;;7.07;4.03;;;21.70;94.40;;;;;;5082120;28;20237;-65
2023/07/28 05:03:36;;;;;;;5.17;3.10;;;21.80;94.30;;;;;;5060117;28;20298;-64
2023/07/28 05:06:18;;;;;;;4.97;3.90;;;21.80;94.50;;;;;;5071683;28;20233;-64
2023/07/28 05:08:45;;;;;;;3.97;3.57;;;21.90;94.20;;;;;;5081767;28;20553;-64
2023/07/28 05:11:16;;;;;;;4.63;3.73;;;21.90;94.10;;;;;;5065606;28;20210;-64
2023/07/28 05:13:44;;;;;;;6.07;3.63;;;22.00;94.10;;;;;;5080849;28;20289;-64
2023/07/28 05:16:11;;;;;;;6.80;3.03;;;22.00;94.10;;;;;;5070935;28;20241;-64
2023/07/28 05:19:13;;;;;;;6.43;3.30;;;22.10;94.30;;;;;;5072820;28;20204;-64
2023/07/28 05:21:49;;;;;;;9.10;4.23;;;22.20;94.10;;;;;;5079934;28;20212;-65
2023/07/28 05:24:19;;;;;;;6.57;3.93;;;22.20;93.80;;;;;;5074197;28;20266;-64
2023/07/28 05:26:46;;;;;;;4.93;3.90;;;22.30;93.40;;;;;;5073391;28;20260;-64
2023/07/28 05:29:14;;;;;;;5.53;4.00;;;22.40;93.20;;;;;;5085785;28;20197;-64
2023/07/28 05:31:42;;;;;;;4.87;3.27;;;22.40;93.00;;;;;;5081713;28;20308;-64
2023/07/28 05:34:23;;;;;;;8.97;3.43;;;22.50;93.00;;;;;;5081362;28;20272;-64
2023/07/28 05:36:50;;;;;;;8.23;3.63;;;22.60;93.00;;;;;;5074802;28;20220;-64
2023/07/28 05:39:17;;;;;;;4.57;3.70;;;22.70;93.00;;;;;;5063510;28;20194;-65
2023/07/28 05:41:45;;;;;;;9.53;4.63;;;22.90;93.00;;;;;;5081561;28;20215;-64
2023/07/28 05:44:14;;;;;;;5.03;3.73;;;22.90;92.60;;;;;;5073947;28;20202;-64
2023/07/28 05:46:41;;;;;;;6.50;3.67;;;23.00;92.30;;;;;;5073650;28;20209;-64
2023/07/28 05:49:08;;;;;;;9.47;4.03;;;23.10;92.10;;;;;;5084658;28;20510;-64
2023/07/28 05:51:35;;;;;;;6.90;3.90;;;23.20;91.70;;;;;;5081137;28;20637;-66
2023/07/28 05:54:02;;;;;;;7.03;4.03;;;23.20;91.30;;;;;;5076659;28;20202;-64
2023/07/28 05:56:29;;;;;;;4.47;4.00;;;23.20;91.20;;;;;;5075667;28;20421;-64
2023/07/28 05:58:57;;;;;;;6.17;4.63;;;23.30;91.10;;;;;;5076727;28;20552;-64
2023/07/28 06:01:26;;;;;;;6.50;4.13;;;23.40;91.10;;;;;;5079437;28;20585;-64
2023/07/28 06:04:13;;;;;;;6.87;3.90;;;23.50;91.00;;;;;;5070440;28;20229;-64
2023/07/28 06:06:45;;;;;;;4.87;3.70;;;23.60;90.90;;;;;;5080337;28;20287;-64
2023/07/28 06:09:14;;;;;;;3.63;3.13;;;23.70;90.60;;;;;;5079783;28;20217;-64
2023/07/28 06:11:42;;;;;;;5.27;3.40;;;23.80;90.30;;;;;;5077546;28;20263;-64
2023/07/28 06:14:09;;;;;;;3.80;3.37;;;23.80;90.00;;;;;;5072592;28;20754;-64
2023/07/28 06:16:37;;;;;;;4.47;2.90;;;23.80;89.50;;;;;;5075494;28;20222;-63
2023/07/28 06:19:04;;;;;;;3.47;2.63;;;23.90;89.30;;;;;;5076269;28;20194;-67
2023/07/28 06:21:33;;;;;;;8.13;3.30;;;24.00;89.20;;;;;;5077210;28;20205;-64
2023/07/28 06:24:00;;;;;;;4.93;2.67;;;24.10;89.00;;;;;;5073579;28;20586;-65
2023/07/28 06:26:27;;;;;;;4.47;3.10;;;24.10;88.70;;;;;;5075548;28;20542;-64
2023/07/28 06:28:54;;;;;;;3.40;2.67;;;24.20;88.20;;;;;;5078933;28;20212;-64
2023/07/28 06:31:21;;;;;;;4.03;3.00;;;24.30;87.80;;;;;;5081293;28;20218;-64
2023/07/28 06:33:48;;;;;;;4.73;2.90;;;24.40;87.20;;;;;;5078394;28;20301;-64
2023/07/28 06:36:17;;;;;;;3.50;2.87;;;24.40;86.40;;;;;;5070689;28;20248;-64
2023/07/28 06:38:48;;;;;;;3.40;2.50;;;24.50;85.70;;;;;;5064120;28;20214;-64
2023/07/28 06:41:15;;;;;;;5.33;2.70;;;24.60;83.50;;;;;;5071308;28;20296;-64
2023/07/28 06:43:44;;;;;;;8.93;2.40;;;24.60;82.80;;;;;;5067151;28;20214;-64
2023/07/28 06:46:12;;;;;;;2.33;2.13;;;24.60;83.00;;;;;;5076820;28;20292;-64
2023/07/28 06:48:39;;;;;;;4.03;2.70;;;24.70;83.00;;;;;;5081237;28;20555;-63
2023/07/28 06:51:06;;;;;;;4.00;2.60;;;24.80;82.60;;;;;;5079450;28;20203;-64
2023/07/28 06:53:34;;;;;;;11.83;2.53;;;24.90;81.50;;;;;;5072229;28;20235;-64
2023/07/28 06:56:01;;;;;;;4.60;2.50;;;24.90;80.80;;;;;;5073265;28;20222;-65
2023/07/28 06:58:28;;;;;;;2.23;1.93;;;25.00;80.80;;;;;;5078740;28;20650;-65
2023/07/28 07:00:56;;;;;;;4.30;2.30;;;24.90;80.30;;;;;;5074580;28;20640;-64
2023/07/28 07:03:24;;;;;;;3.67;2.57;;;24.90;80.60;;;;;;5067910;28;20313;-64
2023/07/28 07:05:51;;;;;;;2.53;2.20;;;25.00;80.60;;;;;;5071617;28;20212;-64
2023/07/28 07:08:19;;;;;;;3.50;2.27;;;25.00;80.50;;;;;;5089401;28;20214;-64
2023/07/28 07:10:50;;;;;;;3.90;2.50;;;25.00;80.70;;;;;;5082071;28;20200;-64
2023/07/28 07:13:17;;;;;;;2.70;2.13;;;25.00;80.60;;;;;;5071614;28;20256;-64
2023/07/28 07:15:45;;;;;;;2.80;2.20;;;25.10;80.50;;;;;;5069436;28;20202;-64
2023/07/28 07:18:12;;;;;;;3.20;2.70;;;25.20;80.40;;;;;;5078608;28;20251;-64
2023/07/28 07:20:39;;;;;;;4.77;2.17;;;25.20;80.30;;;;;;5069131;28;20209;-65
2023/07/28 07:23:07;;;;;;;4.50;2.50;;;25.30;80.70;;;;;;5074190;28;20203;-64
2023/07/28 07:25:34;;;;;;;3.17;2.87;;;25.30;81.00;;;;;;5079109;28;20525;-64
2023/07/28 07:28:03;;;;;;;4.50;2.33;;;25.40;81.10;;;;;;5075595;28;20599;-64
2023/07/28 07:30:33;;;;;;;4.60;2.40;;;25.50;80.80;;;;;;5076178;28;20196;-63
2023/07/28 07:33:00;;;;;;;2.37;2.10;;;25.50;80.60;;;;;;5071286;28;20210;-64
2023/07/28 07:35:27;;;;;;;4.80;2.63;;;25.60;80.70;;;;;;5067357;28;20211;-64
2023/07/28 07:37:54;;;;;;;2.93;2.70;;;25.70;80.20;;;;;;5078590;28;20210;-64
2023/07/28 07:40:23;;;;;;;4.30;2.67;;;25.80;80.10;;;;;;5070611;28;20205;-64
2023/07/28 07:42:53;;;;;;;4.43;2.90;;;25.80;80.10;;;;;;5082990;28;20700;-64
2023/07/28 07:45:20;;;;;;;7.77;2.80;;;25.80;80.30;;;;;;5076077;28;20207;-63
2023/07/28 07:47:48;;;;;;;6.10;2.87;;;25.90;80.50;;;;;;5077380;28;20204;-64
2023/07/28 07:50:15;;;;;;;8.43;3.40;;;26.10;80.00;;;;;;5080332;28;20226;-64
2023/07/28 07:52:42;;;;;;;3.43;2.57;;;26.20;79.90;;;;;;5071491;28;20209;-64
2023/07/28 07:55:11;;;;;;;7.40;2.90;;;26.20;79.40;;;;;;5064988;28;20206;-64
2023/07/28 07:57:39;;;;;;;6.10;2.60;;;26.40;79.10;;;;;;5078609;28;20228;-63
2023/07/28 08:00:07;;;;;;;5.13;3.17;;;26.50;78.80;;;;;;5071516;28;20279;-64
2023/07/28 08:02:40;;;;;;;5.47;2.10;;;26.70;77.90;;;;;;5080431;28;20223;-63
2023/07/28 08:05:11;;;;;;;3.43;2.77;;;26.70;77.10;;;;;;5071069;28;20210;-64
2023/07/28 08:07:38;;;;;;;3.47;2.10;;;26.70;76.60;;;;;;5071283;28;20197;-64
2023/07/28 08:10:06;;;;;;;3.00;2.20;;;26.70;76.40;;;;;;5076090;28;20197;-64
2023/07/28 08:12:33;;;;;;;6.50;2.80;;;26.70;76.30;;;;;;5070216;28;20238;-65
2023/07/28 08:15:00;;;;;;;11.63;2.33;;;26.70;76.00;;;;;;5070900;28;20290;-64
2023/07/28 08:17:27;;;;;;;6.13;2.37;;;26.60;76.00;;;;;;5090445;28;20243;-64
2023/07/28 08:19:54;;;;;;;3.40;2.47;;;26.60;76.40;;;;;;5077191;28;20281;-64
2023/07/28 08:22:21;;;;;;;5.67;2.70;;;26.60;75.90;;;;;;5073793;28;20202;-63
2023/07/28 08:24:48;;;;;;;4.47;2.30;;;26.50;76.30;;;;;;5070844;28;20228;-63
2023/07/28 08:27:15;;;;;;;5.60;2.50;;;26.40;77.20;;;;;;5074608;28;20683;-64
2023/07/28 08:29:42;;;;;;;3.93;2.30;;;26.50;78.10;;;;;;5076147;28;20512;-63
2023/07/28 08:32:09;;;;;;;4.20;2.40;;;26.60;78.50;;;;;;5072245;28;20204;-63
2023/07/28 08:34:36;;;;;;;4.13;2.40;;;26.90;78.40;;;;;;5075859;28;20264;-64
2023/07/28 08:37:03;;;;;;;5.07;1.90;;;27.30;77.30;;;;;;5069412;28;20217;-64
2023/07/28 08:39:30;;;;;;;6.83;2.43;;;27.60;75.60;;;;;;5071799;28;20333;-64
2023/07/28 08:42:02;;;;;;;5.30;1.83;;;27.90;74.30;;;;;;5077914;28;20298;-64
2023/07/28 08:44:33;;;;;;;4.07;1.87;;;28.00;74.00;;;;;;5079615;28;20205;-64
2023/07/28 08:47:03;;;;;;;2.70;1.50;;;28.10;74.10;;;;;;5077263;28;20205;-64
2023/07/28 08:49:36;;;;;;;5.10;1.70;;;28.20;74.10;;;;;;5079323;28;20686;-64
2023/07/28 08:52:04;;;;;;;2.37;1.40;;;28.30;73.40;;;;;;5068895;28;20639;-64
2023/07/28 08:54:31;;;;;;;1.97;1.70;;;28.40;73.40;;;;;;5079001;28;20628;-64
2023/07/28 08:56:58;;;;;;;4.20;2.27;;;28.40;73.10;;;;;;5078079;28;20671;-64
2023/07/28 08:59:27;;;;;;;3.40;1.67;;;28.40;73.00;;;;;;5083772;28;20219;-64
2023/07/28 09:01:56;;;;;;;2.13;1.63;;;28.40;73.10;;;;;;5082468;28;20259;-64
2023/07/28 09:04:23;;;;;;;1.97;1.77;;;28.40;73.20;;;;;;5077900;28;20336;-64
2023/07/28 09:06:51;;;;;;;3.23;1.20;;;28.50;73.10;;;;;;5075664;28;20217;-64
2023/07/28 09:09:24;;;;;;;4.73;1.73;;;28.60;72.90;;;;;;5076526;28;20622;-64
2023/07/28 09:11:53;;;;;;;5.03;1.90;;;28.80;72.40;;;;;;5071540;28;20201;-64
2023/07/28 09:14:24;;;;;;;2.23;1.70;;;29.10;70.60;;;;;;5073042;28;20201;-64
2023/07/28 09:16:53;;;;;;;2.43;1.67;;;29.30;71.00;;;;;;5083845;28;20229;-64
2023/07/28 09:19:21;;;;;;;1.87;1.53;;;29.50;70.90;;;;;;5080478;28;20211;-64
2023/07/28 09:22:00;;;;;;;3.33;1.80;;;29.80;70.50;;;;;;5080333;28;20525;-65
2023/07/28 09:24:32;;;;;;;2.97;1.97;;;30.10;69.90;;;;;;5072748;28;20219;-64
2023/07/28 09:26:59;;;;;;;5.07;2.10;;;30.30;68.90;;;;;;5081346;28;20202;-65
2023/07/28 09:29:29;;;;;;;2.80;1.53;;;30.50;67.80;;;;;;5075853;28;20271;-64
2023/07/28 09:32:06;;;;;;;6.37;2.10;;;30.70;66.60;;;;;;5067836;28;20193;-65
2023/07/28 09:34:33;;;;;;;4.10;2.27;;;30.80;65.50;;;;;;5077550;28;20537;-63
2023/07/28 09:37:01;;;;;;;4.40;1.77;;;30.70;63.80;;;;;;5080487;28;20217;-65
2023/07/28 09:39:28;;;;;;;6.57;2.20;;;30.70;64.30;;;;;;5082433;28;20194;-65
2023/07/28 09:41:59;;;;;;;5.50;1.60;;;30.70;63.80;;;;;;5077909;28;20201;-64
2023/07/28 09:44:26;;;;;;;5.10;2.30;;;30.70;62.30;;;;;;5069299;28;20187;-64
2023/07/28 09:46:56;;;;;;;3.90;1.70;;;30.70;62.40;;;;;;5079193;28;20591;-64
2023/07/28 09:49:50;;;;;;;5.10;2.10;;;30.70;62.40;;;;;;5072938;28;20237;-65
2023/07/28 09:52:19;;;;;;;4.20;2.07;;;30.70;63.30;;;;;;5066968;28;20245;-64
2023/07/28 09:54:53;;;;;;;4.80;1.97;;;30.70;63.60;;;;;;5082429;28;20216;-63
2023/07/28 09:57:21;;;;;;;5.43;2.03;;;30.80;62.60;;;;;;5075410;28;20217;-66
2023/07/28 09:59:49;;;;;;;7.23;1.97;;;30.80;62.50;;;;;;5077694;28;20204;-64
2023/07/28 10:02:17;;;;;;;1.90;1.80;;;30.90;61.40;;;;;;5073831;28;20220;-63
2023/07/28 10:04:44;;;;;;;5.37;1.90;;;31.00;61.20;;;;;;5076545;28;20215;-64
2023/07/28 10:07:12;;;;;;;2.83;1.70;;;31.10;60.80;;;;;;5077080;28;20193;-64
2023/07/28 10:09:39;;;;;;;3.00;1.87;;;31.30;60.50;;;;;;5068395;28;20537;-64
2023/07/28 10:12:17;;;;;;;5.97;2.20;;;31.50;60.10;;;;;;5073116;28;20696;-64
2023/07/28 10:14:44;;;;;;;4.23;2.17;;;31.60;59.70;;;;;;5080980;28;20283;-64
2023/07/28 10:17:16;;;;;;;4.43;1.83;;;31.90;59.20;;;;;;5079905;28;20229;-64
2023/07/28 10:19:43;;;;;;;7.47;2.20;;;31.90;58.00;;;;;;5075156;28;20251;-64
2023/07/28 10:22:11;;;;;;;6.27;2.13;;;31.90;57.40;;;;;;5068293;28;20198;-65
2023/07/28 10:24:55;;;;;;;7.33;2.10;;;31.90;57.70;;;;;;5073702;28;20542;-65
2023/07/28 10:27:35;;;;;;;5.83;1.93;;;31.90;57.40;;;;;;5074633;28;20232;-64
2023/07/28 10:30:14;;;;;;;3.00;2.20;;;32.00;57.50;;;;;;5069005;28;20237;-64
2023/07/28 10:32:48;;;;;;;2.83;1.90;;;32.00;57.00;;;;;;5079744;28;20214;-64
2023/07/28 10:35:15;;;;;;;3.60;1.50;;;32.00;56.80;;;;;;5078417;28;20461;-64
2023/07/28 10:37:46;;;;;;;6.40;2.10;;;32.00;56.30;;;;;;5072849;28;20221;-63
2023/07/28 10:40:32;;;;;;;6.63;1.70;;;32.00;56.20;;;;;;5078943;28;20259;-64
2023/07/28 10:42:59;;;;;;;5.80;1.70;;;32.00;56.00;;;;;;5069567;28;20194;-64
2023/07/28 10:45:29;;;;;;;1.67;1.50;;;32.10;55.70;;;;;;5077199;28;20198;-65
2023/07/28 10:47:59;;;;;;;2.87;1.83;;;32.20;55.70;;;;;;5073176;28;20596;-64
2023/07/28 10:50:30;;;;;;;5.80;1.60;;;32.30;55.80;;;;;;5078170;28;20198;-64
2023/07/28 10:52:57;;;;;;;2.53;1.90;;;32.50;54.50;;;;;;5079387;28;20198;-66
2023/07/28 10:55:26;;;;;;;6.17;2.50;;;32.60;54.60;;;;;;5076010;28;20207;-64
2023/07/28 10:57:54;;;;;;;4.00;1.77;;;32.70;54.70;;;;;;5078540;28;20561;-66
2023/07/28 11:00:22;;;;;;;6.77;1.70;;;32.80;54.50;;;;;;5072430;28;20204;-65
2023/07/28 11:02:54;;;;;;;8.23;2.10;;;33.00;54.80;;;;;;5068720;28;20616;-64
2023/07/28 11:05:29;;;;;;;7.37;2.00;;;33.10;54.40;;;;;;5074390;28;20205;-64
2023/07/28 11:08:02;;;;;;;1.83;1.50;;;33.30;53.50;;;;;;5076098;28;20508;-66
2023/07/28 11:10:29;;;;;;;4.37;1.63;;;33.30;53.00;;;;;;5076264;28;20197;-65
2023/07/28 11:13:00;;;;;;;4.27;2.03;;;33.40;52.00;;;;;;5076337;28;20221;-65
2023/07/28 11:15:42;;;;;;;2.83;1.73;;;33.30;52.40;;;;;;5074787;28;20196;-64
2023/07/28 11:18:09;;;;;;;5.27;1.63;;;33.30;51.70;;;;;;5071678;28;20209;-64
2023/07/28 11:20:37;;;;;;;3.60;1.50;;;33.20;51.90;;;;;;5069749;28;20554;-64
2023/07/28 11:23:05;;;;;;;4.17;2.00;;;33.20;52.70;;;;;;5074762;28;20198;-65
2023/07/28 11:25:33;;;;;;;4.20;1.80;;;33.20;52.30;;;;;;5073656;28;20210;-64
2023/07/28 11:28:08;;;;;;;6.27;1.70;;;33.30;51.70;;;;;;5073375;28;20553;-64
2023/07/28 11:30:40;;;;;;;4.30;1.50;;;33.40;51.40;;;;;;5072035;28;20520;-64
2023/07/28 11:33:11;;;;;;;5.30;1.80;;;33.50;51.30;;;;;;5073787;28;20209;-66
2023/07/28 11:35:40;;;;;;;9.00;1.80;;;33.50;50.40;;;;;;5076921;28;20267;-66
2023/07/28 11:38:09;;;;;;;5.60;2.07;;;33.60;49.30;;;;;;5075164;28;20206;-64
2023/07/28 11:40:37;;;;;;;3.03;1.80;;;33.50;49.30;;;;;;5071451;28;20198;-64
2023/07/28 11:43:04;;;;;;;7.47;1.93;;;33.40;49.40;;;;;;5075705;28;20276;-64
2023/07/28 11:45:31;;;;;;;3.60;1.90;;;33.30;50.50;;;;;;5073415;28;20515;-64
2023/07/28 11:48:00;;;;;;;2.37;1.70;;;33.30;51.00;;;;;;5077576;28;20193;-63
2023/07/28 11:50:29;;;;;;;6.57;1.77;;;33.20;51.60;;;;;;5073643;28;20190;-64
2023/07/28 11:52:57;;;;;;;5.17;1.77;;;33.20;51.50;;;;;;5074754;28;20208;-64
2023/07/28 11:55:25;;;;;;;4.73;1.70;;;33.20;51.00;;;;;;5077687;28;20210;-64
2023/07/28 11:57:53;;;;;;;2.40;1.90;;;33.10;50.90;;;;;;5072302;28;20235;-66
2023/07/28 12:00:34;;;;;;;6.83;2.03;;;33.10;50.70;;;;;;5069531;28;20520;-64
2023/07/28 12:03:12;;;;;;;3.93;1.90;;;33.20;49.50;;;;;;5076131;28;20694;-64
2023/07/28 12:05:59;;;;;;;3.27;2.00;;;33.20;49.00;;;;;;5074779;28;20197;-65
2023/07/28 12:08:41;;;;;;;5.70;1.63;;;33.30;49.00;;;;;;5073374;28;20212;-64
2023/07/28 12:11:16;;;;;;;4.70;2.30;;;33.40;49.40;;;;;;5071238;28;20248;-64
2023/07/28 12:13:50;;;;;;;7.53;1.83;;;33.50;49.60;;;;;;5072767;28;20206;-64
2023/07/28 12:16:42;;;;;;;5.77;2.30;;;33.70;49.30;;;;;;5076119;28;20280;-64
2023/07/28 12:19:12;;;;;;;5.53;2.00;;;33.70;48.80;;;;;;5068914;28;20209;-64
2023/07/28 12:21:39;;;;;;;4.07;2.17;;;33.70;48.60;;;;;;5076500;28;20193;-63
2023/07/28 12:24:07;;;;;;;2.33;1.67;;;33.70;48.80;;;;;;5077356;28;20290;-65
2023/07/28 12:26:34;;;;;;;2.87;2.10;;;33.60;49.50;;;;;;5082426;28;20510;-64
2023/07/28 12:29:06;;;;;;;3.83;1.77;;;33.60;49.40;;;;;;5079968;28;20201;-64
2023/07/28 12:31:35;;;;;;;4.00;1.83;;;33.60;47.60;;;;;;5075332;28;20195;-64
2023/07/28 12:34:05;;;;;;;10.30;2.20;;;33.60;47.70;;;;;;5080307;28;20271;-64
2023/07/28 12:36:33;;;;;;;2.00;1.80;;;33.70;47.50;;;;;;5073053;28;20218;-64
2023/07/28 12:39:03;;;;;;;2.80;1.73;;;33.70;46.30;;;;;;5066493;28;20575;-64
2023/07/28 12:41:50;;;;;;;2.10;1.90;;;33.70;47.20;;;;;;5077603;28;20194;-64
2023/07/28 12:44:20;;;;;;;3.27;1.97;;;33.70;47.60;;;;;;5087363;28;20189;-64
2023/07/28 12:47:08;;;;;;;6.33;2.00;;;33.70;46.90;;;;;;5080494;28;20202;-64
2023/07/28 12:49:35;;;;;;;2.67;1.87;;;33.70;45.90;;;;;;5077402;28;20209;-63
2023/07/28 12:52:06;;;;;;;3.20;1.90;;;33.70;45.70;;;;;;5074680;28;20209;-65
2023/07/28 12:54:34;;;;;;;2.70;1.87;;;33.70;46.00;;;;;;5081882;28;20280;-64
2023/07/28 12:57:12;;;;;;;2.30;1.97;;;33.60;45.30;;;;;;5070435;28;20194;-64